Osakis, Minnesota
Current Conditions -  °F | °C
As of 3:53 AM on Tuesday 27 Jan 2015 (Local Time) from KAXN Reporting Station
Overcast Overcast  
Wind Chill: 28°   Ceiling: 400
Heat Index: 28°   Visibility: 9mi
Dew Point: 26°   Wind: 3mph
Humidity: 92%   Direction: 10°N
Pressure: 30.05"   Gusts: NA
Location:  45.87°N, 95.15°W
Report Text: KAXN 270953Z AUTO 01003KT 9SM OVC004 M02/M03 A3005 RMK AO2 SLP195 T10221033
Loading
Personal Weather Stations






























Interactive Weather Map New forecast layout! Learn more

10-Day Weather Forecast

Advertisements
Track Severe Weather on mobile